createdAt,value
2023-02-09T00:01:35.101Z,0.83
2023-02-09T00:04:05.151Z,0.71
2023-02-09T00:06:34.795Z,0.81
2023-02-09T00:09:04.445Z,0.69
2023-02-09T00:11:47.509Z,0.74
2023-02-09T00:14:22.422Z,0.74
2023-02-09T00:16:52.845Z,0.71
2023-02-09T00:19:24.484Z,0.60
2023-02-09T00:21:54.166Z,0.54
2023-02-09T00:24:24.195Z,0.55
2023-02-09T00:26:54.349Z,0.79
2023-02-09T00:29:26.588Z,0.71
2023-02-09T00:31:56.306Z,0.91
2023-02-09T00:34:26.003Z,0.47
2023-02-09T00:36:58.028Z,0.53
2023-02-09T00:39:27.785Z,0.64
2023-02-09T00:42:11.181Z,0.55
2023-02-09T00:44:43.688Z,0.62
2023-02-09T00:47:13.308Z,0.87
2023-02-09T00:49:43.333Z,0.80
2023-02-09T00:52:13.039Z,0.73
2023-02-09T00:54:43.103Z,0.45
2023-02-09T00:57:12.935Z,0.82
2023-02-09T00:59:45.180Z,0.67
2023-02-09T01:02:14.776Z,0.71
2023-02-09T01:04:44.527Z,0.73
2023-02-09T01:07:14.192Z,0.75
2023-02-09T01:09:43.842Z,0.84
2023-02-09T01:12:13.443Z,0.78
2023-02-09T01:14:46.067Z,0.47
2023-02-09T01:17:15.806Z,0.81
2023-02-09T01:19:45.611Z,0.95
2023-02-09T01:22:16.430Z,0.94
2023-02-09T01:24:47.838Z,0.81
2023-02-09T01:27:19.393Z,0.83
2023-02-09T01:29:51.606Z,0.54
2023-02-09T01:32:21.424Z,0.75
2023-02-09T01:34:53.266Z,0.74
2023-02-09T01:37:23.335Z,0.77
2023-02-09T01:39:53.011Z,0.78
2023-02-09T01:42:23.696Z,0.79
2023-02-09T01:45:27.423Z,0.58
2023-02-09T01:48:03.466Z,0.57
2023-02-09T01:50:36.819Z,0.72
2023-02-09T01:53:06.767Z,0.76
2023-02-09T01:55:39.608Z,0.60
2023-02-09T01:58:13.242Z,0.66
2023-02-09T02:00:46.945Z,0.68
2023-02-09T02:03:21.092Z,0.62
2023-02-09T02:05:55.610Z,0.63
2023-02-09T02:08:30.699Z,0.83
2023-02-09T02:11:01.123Z,0.77
2023-02-09T02:13:30.748Z,0.69
2023-02-09T02:16:09.505Z,0.82
2023-02-09T02:18:58.278Z,0.66
2023-02-09T02:22:08.836Z,0.73
2023-02-09T02:25:08.236Z,0.48
2023-02-09T02:27:46.595Z,0.56
2023-02-09T02:30:44.380Z,0.55
2023-02-09T02:33:30.929Z,0.50
2023-02-09T02:36:08.438Z,0.70
2023-02-09T02:38:42.528Z,0.69
2023-02-09T02:41:17.413Z,0.63
2023-02-09T02:43:58.291Z,0.58
2023-02-09T02:46:31.267Z,0.77
2023-02-09T02:49:07.967Z,0.77
2023-02-09T02:51:40.757Z,0.83
2023-02-09T02:54:15.076Z,0.80
2023-02-09T02:56:47.179Z,0.72
2023-02-09T02:59:21.475Z,0.70
2023-02-09T03:01:58.516Z,0.47
2023-02-09T03:04:33.105Z,0.77
2023-02-09T03:07:02.979Z,0.71
2023-02-09T03:09:32.642Z,0.74
2023-02-09T03:12:12.532Z,0.65
2023-02-09T03:14:45.887Z,0.64
2023-02-09T03:17:26.023Z,0.83
2023-02-09T03:20:07.203Z,0.59
2023-02-09T03:22:39.999Z,0.57
2023-02-09T03:25:15.301Z,0.51
2023-02-09T03:27:50.556Z,0.53
2023-02-09T03:30:21.306Z,0.62
2023-02-09T03:32:51.124Z,0.58
2023-02-09T03:35:23.638Z,0.67
2023-02-09T03:37:53.582Z,0.70
2023-02-09T03:40:23.585Z,0.52
2023-02-09T03:42:53.578Z,0.19
2023-02-09T03:45:23.194Z,0.40
2023-02-09T03:47:52.889Z,0.49
2023-02-09T03:50:25.152Z,0.53
2023-02-09T03:52:54.786Z,0.41
2023-02-09T03:55:24.435Z,0.28
2023-02-09T03:57:54.253Z,-0.04
2023-02-09T04:00:24.236Z,0.25
2023-02-09T04:02:53.921Z,0.07
2023-02-09T04:05:26.138Z,0.36
2023-02-09T04:07:55.752Z,0.33
2023-02-09T04:10:25.417Z,0.19
2023-02-09T04:12:55.016Z,0.31
2023-02-09T04:15:24.626Z,0.42
2023-02-09T04:17:54.245Z,0.34
2023-02-09T04:20:26.430Z,0.50
2023-02-09T04:22:56.039Z,0.45
2023-02-09T04:25:25.659Z,0.27
2023-02-09T04:27:55.309Z,0.67
2023-02-09T04:30:24.932Z,0.77
2023-02-09T04:32:54.840Z,0.73
2023-02-09T04:35:27.236Z,0.57
2023-02-09T04:37:56.888Z,0.66
2023-02-09T04:40:26.499Z,0.35
2023-02-09T04:42:56.174Z,0.20
2023-02-09T04:45:25.794Z,0.26
2023-02-09T04:47:55.467Z,0.13
2023-02-09T04:50:27.906Z,0.07
2023-02-09T04:52:57.486Z,-0.12
2023-02-09T04:55:27.091Z,0.35
2023-02-09T04:58:09.371Z,0.37
2023-02-09T05:00:38.995Z,0.09
2023-02-09T05:03:08.653Z,0.30
2023-02-09T05:05:41.757Z,0.42
2023-02-09T05:08:11.785Z,0.41
2023-02-09T05:10:41.447Z,0.29
2023-02-09T05:13:11.018Z,0.31
2023-02-09T05:15:40.727Z,0.14
2023-02-09T05:18:10.396Z,0.20
2023-02-09T05:20:43.190Z,0.27
2023-02-09T05:23:13.415Z,0.18
2023-02-09T05:25:43.184Z,-0.05
2023-02-09T05:28:12.949Z,-0.29
2023-02-09T05:30:42.658Z,-0.22
2023-02-09T05:33:12.306Z,0.12
2023-02-09T05:35:44.555Z,0.17
2023-02-09T05:38:14.162Z,-0.35
2023-02-09T05:40:45.213Z,0.03
2023-02-09T05:43:15.073Z,-0.09
2023-02-09T05:45:44.701Z,-0.04
2023-02-09T05:48:14.408Z,-0.38
2023-02-09T05:50:47.030Z,-0.02
2023-02-09T05:53:18.712Z,-0.16
2023-02-09T05:55:49.824Z,-0.20
2023-02-09T05:58:19.417Z,-0.41
2023-02-09T06:00:49.087Z,-0.58
2023-02-09T06:03:18.821Z,0.07
2023-02-09T06:05:51.071Z,-0.01
2023-02-09T06:08:20.778Z,-0.28
2023-02-09T06:10:50.361Z,-0.02
2023-02-09T06:13:19.956Z,-0.05
2023-02-09T06:15:49.637Z,0.00
2023-02-09T06:18:19.259Z,0.08
2023-02-09T06:20:51.430Z,0.20
2023-02-09T06:23:21.047Z,0.13
2023-02-09T06:25:53.164Z,0.21
2023-02-09T06:28:22.906Z,-0.07
2023-02-09T06:30:53.338Z,-0.21
2023-02-09T06:33:23.531Z,-0.33
2023-02-09T06:35:55.766Z,-0.14
2023-02-09T06:38:25.591Z,-0.07
2023-02-09T06:40:55.194Z,-0.43
2023-02-09T06:43:24.800Z,-0.27
2023-02-09T06:45:54.429Z,-0.02
2023-02-09T06:48:24.148Z,0.02
2023-02-09T06:50:56.516Z,-0.48
2023-02-09T06:53:26.156Z,-0.20
2023-02-09T06:55:55.786Z,-0.11
2023-02-09T06:58:25.446Z,0.06
2023-02-09T07:00:55.074Z,-0.19
2023-02-09T07:03:24.726Z,-0.31
2023-02-09T07:05:57.005Z,-0.37
2023-02-09T07:08:26.699Z,-0.24
2023-02-09T07:10:56.310Z,-0.15
2023-02-09T07:13:25.997Z,-0.25
2023-02-09T07:15:59.638Z,-0.13
2023-02-09T07:18:30.103Z,-0.41
2023-02-09T07:21:03.886Z,0.00
2023-02-09T07:23:33.858Z,-0.47
2023-02-09T07:26:07.125Z,0.08
2023-02-09T07:28:38.320Z,-0.37
2023-02-09T07:31:10.372Z,-0.17
2023-02-09T07:33:40.512Z,-0.03
2023-02-09T07:36:14.950Z,0.16
2023-02-09T07:38:44.847Z,-0.07
2023-02-09T07:41:18.160Z,0.14
2023-02-09T07:43:48.182Z,-0.06
2023-02-09T07:46:19.375Z,0.12
2023-02-09T07:48:49.087Z,0.21
2023-02-09T07:51:25.490Z,0.19
2023-02-09T07:53:55.391Z,-0.31
2023-02-09T07:56:25.410Z,0.34
2023-02-09T07:58:56.209Z,0.44
2023-02-09T08:01:27.412Z,0.24
2023-02-09T08:03:57.229Z,0.17
2023-02-09T08:06:42.043Z,0.49
2023-02-09T08:09:13.372Z,0.46
2023-02-09T08:11:46.537Z,0.24
2023-02-09T08:14:20.363Z,0.33
2023-02-09T08:16:51.882Z,0.57
2023-02-09T08:19:25.551Z,0.58
2023-02-09T08:21:57.851Z,0.39
2023-02-09T08:24:27.533Z,0.41
2023-02-09T08:26:58.038Z,0.65
2023-02-09T08:29:27.918Z,0.57
2023-02-09T08:31:57.617Z,0.66
2023-02-09T08:34:27.350Z,0.83
2023-02-09T08:36:59.629Z,0.83
2023-02-09T08:39:29.324Z,0.34
2023-02-09T08:41:59.016Z,0.58
2023-02-09T08:44:28.732Z,1.23
2023-02-09T08:46:58.513Z,1.34
2023-02-09T08:49:28.278Z,1.28
2023-02-09T08:52:00.535Z,1.16
2023-02-09T08:54:30.208Z,1.73
2023-02-09T08:57:00.043Z,1.60
2023-02-09T08:59:30.256Z,1.55
2023-02-09T09:02:00.011Z,1.52
2023-02-09T09:04:29.676Z,1.77
2023-02-09T09:07:01.856Z,1.46
2023-02-09T09:09:31.534Z,1.43
2023-02-09T09:12:01.330Z,1.84
2023-02-09T09:14:31.868Z,1.67
2023-02-09T09:17:01.936Z,1.92
2023-02-09T09:19:31.869Z,2.18
2023-02-09T09:22:04.328Z,1.99
2023-02-09T09:24:40.430Z,2.24
2023-02-09T09:27:11.506Z,3.11
2023-02-09T09:29:42.835Z,1.83
2023-02-09T09:32:15.513Z,2.58
2023-02-09T09:34:46.154Z,2.44
2023-02-09T09:37:18.472Z,2.15
2023-02-09T09:39:48.201Z,2.34
2023-02-09T09:42:25.816Z,2.37
2023-02-09T09:44:56.932Z,2.40
2023-02-09T09:47:37.324Z,1.30
2023-02-09T09:50:13.743Z,2.43
2023-02-09T09:52:49.839Z,2.34
2023-02-09T09:55:26.133Z,2.44
2023-02-09T09:57:57.745Z,2.57
2023-02-09T10:00:29.635Z,2.86
2023-02-09T10:02:59.375Z,2.94
2023-02-09T10:05:31.159Z,3.24
2023-02-09T10:08:08.095Z,3.08
2023-02-09T10:10:48.512Z,3.17
2023-02-09T10:13:24.316Z,3.31
2023-02-09T10:15:57.104Z,3.34
2023-02-09T10:18:27.917Z,3.35
2023-02-09T10:20:59.582Z,3.02
2023-02-09T10:23:41.055Z,3.35
2023-02-09T10:26:24.365Z,3.31
2023-02-09T10:28:56.058Z,3.31
2023-02-09T10:31:29.363Z,3.02
2023-02-09T10:34:01.685Z,2.80
2023-02-09T10:36:34.422Z,3.06
2023-02-09T10:39:18.360Z,2.93
2023-02-09T10:41:51.108Z,3.11
2023-02-09T10:44:26.750Z,3.17
2023-02-09T10:47:13.318Z,3.31
2023-02-09T10:49:43.102Z,3.09
2023-02-09T10:52:21.987Z,3.42
2023-02-09T10:54:56.589Z,3.50
2023-02-09T10:57:29.460Z,3.55
2023-02-09T11:00:01.175Z,3.43
2023-02-09T11:02:39.215Z,3.67
2023-02-09T11:05:29.801Z,3.54
2023-02-09T11:08:06.242Z,3.38
2023-02-09T11:10:43.187Z,3.66
2023-02-09T11:13:25.088Z,3.75
2023-02-09T11:16:39.290Z,3.95
2023-02-09T11:19:20.043Z,4.05
2023-02-09T11:22:02.291Z,4.12
2023-02-09T11:24:54.015Z,3.75
2023-02-09T11:27:37.056Z,3.83
2023-02-09T11:30:18.318Z,4.21
2023-02-09T11:32:52.817Z,4.23
2023-02-09T11:35:26.736Z,4.27
2023-02-09T11:38:01.700Z,4.07
2023-02-09T11:40:37.199Z,4.47
2023-02-09T11:43:23.455Z,4.51
2023-02-09T11:45:55.076Z,4.41
2023-02-09T11:48:27.572Z,4.36
2023-02-09T11:51:06.315Z,4.22
2023-02-09T11:53:45.303Z,4.67
2023-02-09T11:56:17.513Z,4.61
2023-02-09T11:58:57.758Z,4.80
2023-02-09T12:01:38.487Z,4.84
2023-02-09T12:04:17.980Z,4.64
2023-02-09T12:06:51.603Z,4.94
2023-02-09T12:09:31.778Z,4.49
2023-02-09T12:12:10.869Z,4.83
2023-02-09T12:15:07.122Z,4.88
2023-02-09T12:17:46.576Z,4.72
2023-02-09T12:20:26.283Z,4.96
2023-02-09T12:23:04.614Z,5.06
2023-02-09T12:25:38.502Z,5.08
2023-02-09T12:28:21.800Z,4.96
2023-02-09T12:31:11.160Z,5.16
2023-02-09T12:33:42.616Z,5.29
2023-02-09T12:36:28.631Z,5.03
2023-02-09T12:39:05.343Z,5.27
2023-02-09T12:42:05.294Z,5.57
2023-02-09T12:44:41.898Z,5.36
2023-02-09T12:47:41.417Z,5.56
2023-02-09T12:50:27.029Z,5.33
2023-02-09T12:53:26.982Z,5.46
2023-02-09T12:56:06.029Z,5.44
2023-02-09T12:58:40.795Z,5.46
2023-02-09T13:01:10.557Z,5.35
2023-02-09T13:03:45.953Z,5.07
2023-02-09T13:06:29.119Z,4.98
2023-02-09T13:09:02.056Z,5.27
2023-02-09T13:11:35.399Z,5.12
2023-02-09T13:14:09.739Z,5.52
2023-02-09T13:17:08.958Z,6.43
2023-02-09T13:20:03.188Z,5.88
2023-02-09T13:22:52.687Z,5.70
2023-02-09T13:25:33.025Z,5.65
2023-02-09T13:28:11.832Z,5.90
2023-02-09T13:30:41.756Z,5.85
2023-02-09T13:33:25.681Z,5.69
2023-02-09T13:36:09.045Z,5.62
2023-02-09T13:38:46.234Z,5.59
2023-02-09T13:41:28.918Z,5.58
2023-02-09T13:43:58.583Z,5.56
2023-02-09T13:46:31.544Z,5.65
2023-02-09T13:49:13.924Z,5.40
2023-02-09T13:51:43.676Z,5.44
2023-02-09T13:54:22.765Z,5.39
2023-02-09T13:56:52.418Z,5.28
2023-02-09T13:59:22.318Z,5.33
2023-02-09T14:01:52.277Z,5.40
2023-02-09T14:04:25.553Z,5.45
2023-02-09T14:07:01.666Z,5.33
2023-02-09T14:09:41.695Z,5.22
2023-02-09T14:12:18.271Z,5.24
2023-02-09T14:15:10.951Z,5.35
2023-02-09T14:17:40.642Z,5.32
2023-02-09T14:20:24.671Z,5.41
2023-02-09T14:22:59.427Z,5.42
2023-02-09T14:25:33.511Z,5.46
2023-02-09T14:28:03.555Z,5.27
2023-02-09T14:30:36.485Z,5.23
2023-02-09T14:33:07.830Z,5.36
2023-02-09T14:35:41.775Z,4.93
2023-02-09T14:38:37.822Z,5.37
2023-02-09T14:41:36.465Z,5.06
2023-02-09T14:44:20.748Z,5.35
2023-02-09T14:46:52.496Z,5.45
2023-02-09T14:49:23.387Z,5.02
2023-02-09T14:52:02.016Z,5.40
2023-02-09T14:54:34.422Z,5.16
2023-02-09T14:57:06.712Z,5.41
2023-02-09T14:59:36.385Z,5.38
2023-02-09T15:02:19.370Z,5.39
2023-02-09T15:04:49.526Z,4.98
2023-02-09T15:07:24.788Z,5.36
2023-02-09T15:09:54.608Z,5.10
2023-02-09T15:12:31.018Z,5.10
2023-02-09T15:15:02.942Z,5.16
2023-02-09T15:17:34.139Z,4.84
2023-02-09T15:20:03.952Z,4.96
2023-02-09T15:22:33.706Z,4.92
2023-02-09T15:25:03.438Z,5.00
2023-02-09T15:27:42.142Z,5.07
2023-02-09T15:30:20.564Z,4.92
2023-02-09T15:32:50.320Z,4.61
2023-02-09T15:35:22.479Z,4.53
2023-02-09T15:37:55.143Z,4.69
2023-02-09T15:40:39.249Z,4.56
2023-02-09T15:43:32.540Z,4.93
2023-02-09T15:46:14.809Z,4.83
2023-02-09T15:48:44.741Z,4.83
2023-02-09T15:51:14.700Z,4.66
2023-02-09T15:53:48.913Z,4.18
2023-02-09T16:12:48.313Z,3.22
2023-02-09T16:53:17.243Z,3.23
2023-02-09T16:59:44.159Z,4.00
2023-02-09T17:02:39.725Z,3.71
2023-02-09T17:05:19.805Z,3.99
2023-02-09T17:07:55.350Z,3.45
2023-02-09T17:10:37.183Z,4.28
2023-02-09T17:13:07.313Z,4.39
2023-02-09T17:15:43.931Z,4.22
2023-02-09T17:18:18.754Z,4.16
2023-02-09T17:20:52.447Z,4.19
2023-02-09T17:23:25.041Z,4.07
2023-02-09T17:25:57.761Z,4.35
2023-02-09T17:28:29.664Z,4.03
2023-02-09T17:31:01.579Z,3.95
2023-02-09T17:33:34.067Z,3.68
2023-02-09T17:38:55.733Z,4.12
2023-02-09T17:41:37.130Z,4.11
2023-02-09T17:44:29.056Z,4.28
2023-02-09T17:47:06.749Z,3.95
2023-02-09T17:49:36.609Z,3.83
2023-02-09T17:52:06.582Z,3.88
2023-02-09T17:54:36.311Z,4.00
2023-02-09T17:57:08.609Z,3.62
2023-02-09T17:59:38.312Z,3.94
2023-02-09T18:02:16.828Z,4.60
2023-02-09T18:04:46.964Z,4.36
2023-02-09T18:07:20.589Z,4.19
2023-02-09T18:09:51.956Z,4.03
2023-02-09T18:12:26.676Z,4.18
2023-02-09T18:14:56.519Z,4.04
2023-02-09T18:17:26.203Z,3.91
2023-02-09T18:19:57.395Z,4.08
2023-02-09T18:22:27.579Z,4.17
2023-02-09T18:25:00.250Z,4.21
2023-02-09T18:27:32.604Z,4.35
2023-02-09T18:30:02.314Z,4.36
2023-02-09T18:32:32.010Z,4.19
2023-02-09T18:35:02.244Z,4.31
2023-02-09T18:37:31.921Z,4.25
2023-02-09T18:40:01.598Z,4.25
2023-02-09T18:42:34.232Z,4.34
2023-02-09T18:45:04.116Z,4.26
2023-02-09T18:47:34.200Z,4.36
2023-02-09T18:50:03.863Z,4.39
2023-02-09T18:52:34.707Z,4.30
2023-02-09T18:55:04.764Z,4.21
2023-02-09T18:57:37.029Z,4.44
2023-02-09T19:00:07.918Z,4.58
2023-02-09T19:02:37.811Z,4.51
2023-02-09T19:05:08.075Z,4.34
2023-02-09T19:07:38.512Z,4.39
2023-02-09T19:10:09.994Z,4.47
2023-02-09T19:12:44.007Z,4.27
2023-02-09T19:15:14.580Z,4.21
2023-02-09T19:17:44.694Z,4.30
2023-02-09T19:20:16.073Z,4.19
2023-02-09T19:22:47.519Z,4.24
2023-02-09T19:25:17.189Z,4.29
2023-02-09T19:27:50.061Z,4.21
2023-02-09T19:30:24.876Z,4.35
2023-02-09T19:32:56.565Z,4.21
2023-02-09T19:35:28.110Z,4.30
2023-02-09T19:37:59.293Z,4.55
2023-02-09T19:40:36.311Z,4.53
2023-02-09T19:43:09.088Z,4.10
2023-02-09T19:45:39.792Z,3.78
2023-02-09T19:48:11.187Z,3.87
2023-02-09T19:50:41.320Z,3.62
2023-02-09T19:53:12.269Z,2.47
2023-02-09T19:55:42.284Z,3.49
2023-02-09T19:58:14.933Z,4.49
2023-02-09T20:00:45.317Z,4.59
2023-02-09T20:03:17.295Z,5.00
2023-02-09T20:05:51.517Z,3.96
2023-02-09T20:08:28.065Z,3.51
2023-02-09T20:11:02.474Z,3.74
2023-02-09T20:13:37.989Z,4.22
2023-02-09T20:16:15.561Z,3.64
2023-02-09T20:18:50.892Z,3.15
2023-02-09T20:21:29.293Z,2.66
2023-02-09T20:24:00.459Z,3.64
2023-02-09T20:26:33.639Z,4.76
2023-02-09T20:29:07.662Z,2.78
2023-02-09T20:31:42.028Z,2.52
2023-02-09T20:34:23.839Z,3.58
2023-02-09T20:36:58.280Z,3.54
2023-02-09T20:39:28.566Z,3.90
2023-02-09T20:42:15.134Z,4.30
2023-02-09T20:45:00.310Z,4.25
2023-02-09T20:47:30.326Z,4.42
2023-02-09T20:50:00.706Z,4.42
2023-02-09T20:52:31.320Z,3.81
2023-02-09T20:55:01.133Z,4.66
2023-02-09T20:57:33.736Z,4.16
2023-02-09T21:00:09.964Z,3.87
2023-02-09T21:02:54.214Z,3.02
2023-02-09T21:05:42.661Z,3.51
2023-02-09T21:08:22.807Z,3.55
2023-02-09T21:11:17.300Z,2.55
2023-02-09T21:13:47.997Z,4.32
2023-02-09T21:16:20.635Z,4.23
2023-02-09T21:18:50.748Z,3.38
2023-02-09T21:21:23.173Z,2.99
2023-02-09T21:24:03.869Z,2.58
2023-02-09T21:26:52.146Z,3.25
2023-02-09T21:29:32.108Z,3.35
2023-02-09T21:32:25.071Z,3.23
2023-02-09T21:35:29.392Z,4.43
2023-02-09T21:38:25.735Z,3.90
2023-02-09T21:44:17.143Z,3.97
2023-02-09T21:46:55.266Z,3.45
2023-02-09T21:49:42.082Z,4.25
2023-02-09T21:52:12.644Z,3.35
2023-02-09T21:54:47.450Z,2.88
2023-02-09T21:57:30.018Z,3.83
2023-02-09T22:00:19.853Z,3.40
2023-02-09T22:03:05.403Z,3.39
2023-02-09T22:06:11.761Z,4.14
2023-02-09T22:08:41.593Z,4.30
2023-02-09T22:11:11.340Z,4.37
2023-02-09T22:13:41.053Z,4.23
2023-02-09T22:16:12.446Z,4.29
2023-02-09T22:18:42.136Z,4.22
2023-02-09T22:21:14.580Z,3.72
2023-02-09T22:23:44.689Z,3.95
2023-02-09T22:26:15.510Z,4.53
2023-02-09T22:28:46.758Z,4.18
2023-02-09T22:31:19.510Z,4.29
2023-02-09T22:33:53.295Z,4.60
2023-02-09T22:36:26.125Z,4.40
2023-02-09T22:38:55.870Z,4.30
2023-02-09T22:41:26.770Z,4.51
2023-02-09T22:43:58.414Z,4.43
2023-02-09T22:46:31.487Z,4.76
2023-02-09T22:49:02.995Z,4.71
2023-02-09T22:51:36.532Z,4.53
2023-02-09T22:54:07.958Z,4.62
2023-02-09T22:56:37.676Z,4.53
2023-02-09T22:59:07.340Z,4.50
2023-02-09T23:01:37.377Z,4.40
2023-02-09T23:04:07.315Z,4.56
2023-02-09T23:06:39.813Z,4.54
2023-02-09T23:09:10.672Z,4.75
2023-02-09T23:11:40.365Z,4.63
2023-02-09T23:14:11.154Z,4.71
2023-02-09T23:16:42.471Z,4.78
2023-02-09T23:19:15.357Z,4.49
2023-02-09T23:21:50.843Z,3.99
2023-02-09T23:24:24.575Z,4.55
2023-02-09T23:26:54.531Z,4.66
2023-02-09T23:29:24.876Z,4.63
2023-02-09T23:31:55.132Z,4.43
2023-02-09T23:34:25.860Z,4.35
2023-02-09T23:37:04.983Z,4.81
2023-02-09T23:39:43.017Z,4.44
2023-02-09T23:42:12.707Z,4.80
2023-02-09T23:44:42.369Z,4.59
2023-02-09T23:47:12.127Z,4.58
2023-02-09T23:49:41.848Z,4.64
2023-02-09T23:52:14.048Z,4.74
2023-02-09T23:54:43.955Z,3.58
2023-02-09T23:57:13.640Z,4.58
2023-02-09T23:59:43.359Z,4.80
